Lodiburg, Kentucky
Current Conditions -  °F | °C
As of 6:58 AM on Friday 28 Nov 2014 (Local Time) from KFTK Reporting Station
Overcast Overcast  
Wind Chill: 18°   Ceiling: 14000
Heat Index: 24°   Visibility: 10mi
Dew Point: 21°   Wind: 5mph
Humidity: 88%   Direction: 160°SSE
Pressure: 30.4"   Gusts: NA
Location:  37.879°N, 86.3348°W
Report Text: KFTK 281258Z AUTO 16004KT 10SM OVC140 M04/M06 A3040 RMK AO2 SLP307 T10451062
Loading
Personal Weather Stations






























Interactive Weather Map New forecast layout! Learn more

10-Day Weather Forecast

Advertisements
Track Severe Weather on mobile